createdAt,value
2023-02-22T00:01:38.083Z,100024.72
2023-02-22T00:04:06.290Z,100018.03
2023-02-22T00:06:33.060Z,100025.16
2023-02-22T00:08:59.851Z,100020.56
2023-02-22T00:11:26.259Z,100018.97
2023-02-22T00:13:52.760Z,100025.25
2023-02-22T00:16:21.976Z,100021.91
2023-02-22T00:18:49.320Z,100019.25
2023-02-22T00:21:17.122Z,100022.59
2023-02-22T00:23:46.614Z,100024.94
2023-02-22T00:26:18.155Z,100017.31
2023-02-22T00:28:46.942Z,100013.97
2023-02-22T00:31:15.048Z,100011.91
2023-02-22T00:33:42.014Z,100009.56
2023-02-22T00:36:10.698Z,100015.16
2023-02-22T00:38:37.504Z,100010.16
2023-02-22T00:41:04.064Z,100014.94
2023-02-22T00:43:30.539Z,100011.75
2023-02-22T00:45:57.762Z,100010.91
2023-02-22T00:48:24.143Z,100012.59
2023-02-22T00:50:53.718Z,100002.94
2023-02-22T00:53:19.977Z,100003.41
2023-02-22T00:55:46.324Z,100012.03
2023-02-22T00:58:12.857Z,100008.19
2023-02-22T01:00:42.553Z,100011.19
2023-02-22T01:03:11.218Z,100007.03
2023-02-22T01:05:38.245Z,100003.72
2023-02-22T01:08:09.669Z,100004.00
2023-02-22T01:10:37.768Z,100015.56
2023-02-22T01:13:12.478Z,100017.09
2023-02-22T01:15:41.742Z,100008.72
2023-02-22T01:18:09.108Z,100013.59
2023-02-22T01:20:36.145Z,100009.31
2023-02-22T01:23:06.981Z,100013.78
2023-02-22T01:25:34.562Z,100004.84
2023-02-22T01:28:02.550Z,100003.72
2023-02-22T01:30:32.875Z,100006.50
2023-02-22T01:33:00.111Z,100009.00
2023-02-22T01:35:29.757Z,100007.63
2023-02-22T01:37:57.557Z,100007.09
2023-02-22T01:40:33.805Z,99992.59
2023-02-22T01:43:03.745Z,100000.66
2023-02-22T01:45:30.081Z,99996.44
2023-02-22T01:48:00.777Z,99993.13
2023-02-22T01:50:29.247Z,99996.44
2023-02-22T01:52:56.149Z,99998.41
2023-02-22T01:55:23.281Z,99996.59
2023-02-22T01:57:49.842Z,99996.72
2023-02-22T02:00:21.017Z,99990.19
2023-02-22T02:02:58.989Z,99993.13
2023-02-22T02:05:27.841Z,99991.75
2023-02-22T02:07:54.269Z,99991.44
2023-02-22T02:10:21.535Z,99991.06
2023-02-22T02:12:50.437Z,99987.72
2023-02-22T02:15:18.257Z,99990.38
2023-02-22T02:17:45.062Z,99992.59
2023-02-22T02:20:35.156Z,99990.09
2023-02-22T02:23:25.683Z,99986.75
2023-02-22T02:26:21.431Z,99982.66
2023-02-22T02:29:09.730Z,99978.50
2023-02-22T02:32:10.067Z,99968.59
2023-02-22T02:34:49.579Z,99973.91
2023-02-22T02:37:49.554Z,99972.91
2023-02-22T02:40:27.061Z,99971.25
2023-02-22T02:43:01.402Z,99961.13
2023-02-22T02:45:36.298Z,99964.66
2023-02-22T02:48:07.166Z,99966.66
2023-02-22T02:50:41.618Z,99960.97
2023-02-22T02:53:09.865Z,99960.13
2023-02-22T02:55:37.777Z,99959.63
2023-02-22T02:58:08.786Z,99961.25
2023-02-22T03:00:39.979Z,99953.31
2023-02-22T03:03:43.440Z,99968.69
2023-02-22T03:06:29.635Z,99965.03
2023-02-22T03:09:24.062Z,99963.69
2023-02-22T03:12:08.028Z,99961.69
2023-02-22T03:15:04.169Z,99952.25
2023-02-22T03:17:52.342Z,99956.56
2023-02-22T03:20:46.353Z,99958.81
2023-02-22T03:23:24.731Z,99950.88
2023-02-22T03:26:02.399Z,99952.56
2023-02-22T03:28:30.456Z,99951.28
2023-02-22T03:31:10.268Z,99954.22
2023-02-22T03:33:39.269Z,99956.47
2023-02-22T03:36:20.807Z,99954.78
2023-02-22T03:38:50.149Z,99946.44
2023-02-22T03:41:20.269Z,99952.03
2023-02-22T03:43:50.418Z,99949.38
2023-02-22T03:46:19.204Z,99946.75
2023-02-22T03:49:06.895Z,99946.97
2023-02-22T03:51:33.478Z,99942.28
2023-02-22T03:53:59.937Z,99948.69
2023-02-22T03:56:35.725Z,99941.75
2023-02-22T03:59:08.407Z,99935.75
2023-02-22T04:01:35.278Z,99933.72
2023-02-22T04:04:02.661Z,99937.88
2023-02-22T04:06:29.539Z,99936.22
2023-02-22T04:08:56.071Z,99939.28
2023-02-22T04:11:22.779Z,99944.59
2023-02-22T04:13:49.296Z,99936.53
2023-02-22T04:16:15.786Z,99931.06
2023-02-22T04:18:42.296Z,99931.22
2023-02-22T04:21:09.235Z,99938.22
2023-02-22T04:23:35.710Z,99929.50
2023-02-22T04:26:02.059Z,99926.84
2023-02-22T04:28:28.392Z,99932.13
2023-02-22T04:30:54.792Z,99932.44
2023-02-22T04:33:21.201Z,99933.81
2023-02-22T04:35:47.542Z,99927.97
2023-02-22T04:38:14.189Z,99933.84
2023-02-22T04:40:40.647Z,99932.44
2023-02-22T04:43:06.982Z,99930.59
2023-02-22T04:45:33.368Z,99927.72
2023-02-22T04:47:59.693Z,99935.13
2023-02-22T04:50:26.072Z,99936.09
2023-02-22T04:52:52.447Z,99933.81
2023-02-22T04:55:18.877Z,99933.53
2023-02-22T04:57:45.285Z,99930.78
2023-02-22T05:00:17.278Z,99934.41
2023-02-22T05:02:43.688Z,99925.03
2023-02-22T05:05:10.120Z,99934.94
2023-02-22T05:07:36.668Z,99940.66
2023-02-22T05:10:03.130Z,99938.00
2023-02-22T05:12:29.648Z,99931.81
2023-02-22T05:14:56.158Z,99934.13
2023-02-22T05:17:22.527Z,99933.41
2023-02-22T05:19:48.876Z,99940.94
2023-02-22T05:22:15.224Z,99938.84
2023-02-22T05:24:41.585Z,99938.81
2023-02-22T05:27:07.940Z,99934.19
2023-02-22T05:29:34.316Z,99936.25
2023-02-22T05:32:02.517Z,99935.75
2023-02-22T05:34:29.102Z,99934.75
2023-02-22T05:36:55.451Z,99935.59
2023-02-22T05:39:22.236Z,99934.50
2023-02-22T05:41:48.683Z,99934.13
2023-02-22T05:44:15.299Z,99930.59
2023-02-22T05:46:41.700Z,99934.59
2023-02-22T05:49:08.133Z,99930.44
2023-02-22T05:51:34.547Z,99935.19
2023-02-22T05:54:00.909Z,99935.19
2023-02-22T05:56:30.148Z,99938.81
2023-02-22T05:58:57.267Z,99940.47
2023-02-22T06:01:23.695Z,99939.66
2023-02-22T06:03:51.147Z,99935.78
2023-02-22T06:06:22.250Z,99940.06
2023-02-22T06:08:49.187Z,99944.00
2023-02-22T06:11:16.001Z,99936.88
2023-02-22T06:13:42.672Z,99938.81
2023-02-22T06:16:09.090Z,99944.13
2023-02-22T06:18:35.551Z,99945.28
2023-02-22T06:21:01.970Z,99940.53
2023-02-22T06:23:28.314Z,99936.59
2023-02-22T06:25:54.833Z,99942.47
2023-02-22T06:28:21.247Z,99939.13
2023-02-22T06:30:47.659Z,99939.53
2023-02-22T06:33:14.046Z,99944.41
2023-02-22T06:35:40.412Z,99939.00
2023-02-22T06:38:06.826Z,99947.13
2023-02-22T06:40:33.198Z,99954.94
2023-02-22T06:42:59.989Z,99948.50
2023-02-22T06:45:26.593Z,99951.34
2023-02-22T06:47:52.976Z,99949.47
2023-02-22T06:50:26.534Z,99949.97
2023-02-22T06:52:52.939Z,99959.56
2023-02-22T06:55:22.178Z,99946.28
2023-02-22T06:57:48.561Z,99955.41
2023-02-22T07:00:17.310Z,99965.44
2023-02-22T07:02:43.696Z,99965.44
2023-02-22T07:05:12.506Z,99958.75
2023-02-22T07:07:39.980Z,99963.69
2023-02-22T07:10:08.144Z,99964.66
2023-02-22T07:12:35.429Z,99963.72
2023-02-22T07:15:01.798Z,99965.50
2023-02-22T07:17:28.116Z,99970.41
2023-02-22T07:19:54.468Z,99966.84
2023-02-22T07:22:20.822Z,99967.06
2023-02-22T07:24:47.835Z,99975.97
2023-02-22T07:27:14.188Z,99967.28
2023-02-22T07:29:42.688Z,99973.56
2023-02-22T07:32:10.288Z,99978.72
2023-02-22T07:34:37.267Z,99984.03
2023-02-22T07:37:03.667Z,99972.25
2023-02-22T07:39:30.142Z,99983.13
2023-02-22T07:41:56.561Z,99983.19
2023-02-22T07:44:22.997Z,99983.28
2023-02-22T07:46:52.644Z,99985.81
2023-02-22T07:49:19.103Z,99977.88
2023-02-22T07:51:45.821Z,99979.44
2023-02-22T07:54:12.172Z,99983.63
2023-02-22T07:56:44.907Z,99972.41
2023-02-22T07:59:11.242Z,99972.56
2023-02-22T08:01:37.680Z,99973.00
2023-02-22T08:04:04.190Z,99980.13
2023-02-22T08:06:31.778Z,99975.75
2023-02-22T08:08:58.294Z,99975.31
2023-02-22T08:11:25.679Z,99974.13
2023-02-22T08:13:52.105Z,99965.22
2023-02-22T08:16:18.478Z,99974.41
2023-02-22T08:18:44.880Z,99968.78
2023-02-22T08:21:11.565Z,99977.94
2023-02-22T08:23:38.788Z,99968.00
2023-02-22T08:26:10.869Z,99974.53
2023-02-22T08:28:37.231Z,99972.66
2023-02-22T08:31:03.687Z,99972.19
2023-02-22T08:33:30.095Z,99971.19
2023-02-22T08:35:56.530Z,99966.44
2023-02-22T08:38:32.075Z,99968.91
2023-02-22T08:40:58.506Z,99969.38
2023-02-22T08:43:24.973Z,99969.66
2023-02-22T08:45:52.418Z,99969.97
2023-02-22T08:48:19.769Z,99966.03
2023-02-22T08:50:46.717Z,99964.69
2023-02-22T08:53:15.171Z,99968.53
2023-02-22T08:55:42.168Z,99963.75
2023-02-22T08:58:12.137Z,99964.09
2023-02-22T09:00:40.200Z,99960.84
2023-02-22T09:03:09.362Z,99971.16
2023-02-22T09:05:35.856Z,99959.28
2023-02-22T09:08:02.654Z,99965.56
2023-02-22T09:10:33.337Z,99955.31
2023-02-22T09:13:00.838Z,99952.72
2023-02-22T09:15:28.428Z,99959.69
2023-02-22T09:17:54.785Z,99953.66
2023-02-22T09:20:23.531Z,99952.09
2023-02-22T09:22:50.436Z,99962.06
2023-02-22T09:25:18.220Z,99952.47
2023-02-22T09:27:46.545Z,99956.16
2023-02-22T09:30:20.344Z,99954.84
2023-02-22T09:32:46.864Z,99951.88
2023-02-22T09:35:13.335Z,99947.56
2023-02-22T09:37:39.767Z,99943.19
2023-02-22T09:40:09.895Z,99940.72
2023-02-22T09:42:48.021Z,99936.09
2023-02-22T09:45:22.707Z,99940.53
2023-02-22T09:48:15.206Z,99935.13
2023-02-22T09:50:48.546Z,99932.78
2023-02-22T09:53:31.759Z,99926.47
2023-02-22T09:56:04.480Z,99932.47
2023-02-22T09:58:33.270Z,99919.69
2023-02-22T10:01:36.452Z,99921.16
2023-02-22T10:04:45.305Z,99921.53
2023-02-22T10:07:28.109Z,99919.84
2023-02-22T10:09:56.552Z,99916.53
2023-02-22T10:12:29.434Z,99914.88
2023-02-22T10:15:19.062Z,99921.84
2023-02-22T10:18:03.588Z,99908.56
2023-02-22T10:20:45.729Z,99913.22
2023-02-22T10:23:41.168Z,99915.41
2023-02-22T10:26:19.563Z,99917.25
2023-02-22T10:28:59.309Z,99913.22
2023-02-22T10:31:30.907Z,99913.91
2023-02-22T10:34:02.263Z,99914.25
2023-02-22T10:36:29.289Z,99908.28
2023-02-22T10:39:02.173Z,99905.28
2023-02-22T10:41:31.687Z,99902.31
2023-02-22T10:43:58.268Z,99905.63
2023-02-22T10:46:28.452Z,99897.31
2023-02-22T10:49:02.538Z,99893.31
2023-02-22T10:51:29.097Z,99897.97
2023-02-22T10:54:13.876Z,99890.66
2023-02-22T10:56:48.829Z,99891.66
2023-02-22T10:59:34.118Z,99886.03
2023-02-22T11:02:08.633Z,99891.00
2023-02-22T11:04:54.058Z,99884.88
2023-02-22T11:07:32.446Z,99884.53
2023-02-22T11:10:01.225Z,99877.72
2023-02-22T11:12:29.241Z,99878.03
2023-02-22T11:14:56.474Z,99881.34
2023-02-22T11:17:31.980Z,99870.38
2023-02-22T11:19:59.363Z,99872.22
2023-02-22T11:22:40.992Z,99874.38
2023-02-22T11:25:08.294Z,99873.53
2023-02-22T11:27:43.718Z,99871.88
2023-02-22T11:30:22.406Z,99867.72
2023-02-22T11:32:53.185Z,99871.00
2023-02-22T11:35:32.061Z,99867.03
2023-02-22T11:38:24.448Z,99857.72
2023-02-22T11:41:22.987Z,99856.41
2023-02-22T11:43:51.526Z,99858.72
2023-02-22T11:46:30.167Z,99854.72
2023-02-22T11:49:04.524Z,99849.38
2023-02-22T11:51:45.175Z,99842.41
2023-02-22T11:54:28.818Z,99842.53
2023-02-22T11:57:23.243Z,99846.47
2023-02-22T12:00:24.172Z,99844.31
2023-02-22T12:03:19.520Z,99843.38
2023-02-22T12:05:59.390Z,99837.34
2023-02-22T12:08:41.037Z,99830.38
2023-02-22T12:11:23.777Z,99830.19
2023-02-22T12:14:16.382Z,99834.88
2023-02-22T12:17:01.691Z,99838.34
2023-02-22T12:19:36.681Z,99828.38
2023-02-22T12:22:12.059Z,99832.03
2023-02-22T12:24:45.230Z,99834.22
2023-02-22T12:27:18.434Z,99831.88
2023-02-22T12:30:18.354Z,99823.91
2023-02-22T12:32:53.896Z,99822.41
2023-02-22T12:35:29.950Z,99821.19
2023-02-22T12:38:04.732Z,99824.97
2023-02-22T12:40:35.546Z,99823.69
2023-02-22T12:43:20.574Z,99824.34
2023-02-22T12:45:52.748Z,99819.50
2023-02-22T12:48:43.306Z,99826.34
2023-02-22T12:51:34.451Z,99822.00
2023-02-22T12:54:11.912Z,99817.34
2023-02-22T12:56:45.012Z,99809.00
2023-02-22T12:59:20.912Z,99816.66
2023-02-22T13:01:55.037Z,99809.28
2023-02-22T13:04:22.133Z,99812.97
2023-02-22T13:07:10.036Z,99804.72
2023-02-22T13:09:54.085Z,99810.16
2023-02-22T13:12:38.434Z,99808.28
2023-02-22T13:15:17.137Z,99804.94
2023-02-22T13:18:02.846Z,99805.31
2023-02-22T13:20:36.951Z,99801.78
2023-02-22T13:23:32.464Z,99803.53
2023-02-22T13:26:11.906Z,99808.28
2023-02-22T13:28:50.762Z,99804.47
2023-02-22T13:31:33.325Z,99802.31
2023-02-22T13:34:06.679Z,99805.63
2023-02-22T13:36:42.112Z,99803.06
2023-02-22T13:39:28.420Z,99803.25
2023-02-22T13:42:04.102Z,99802.94
2023-02-22T13:45:03.157Z,99802.13
2023-02-22T13:47:52.606Z,99802.94
2023-02-22T13:50:40.997Z,99810.28
2023-02-22T13:53:14.507Z,99801.03
2023-02-22T13:55:44.168Z,99803.03
2023-02-22T13:58:12.510Z,99794.72
2023-02-22T14:00:49.243Z,99805.41
2023-02-22T14:03:15.523Z,99800.09
2023-02-22T14:05:42.309Z,99794.22
2023-02-22T14:08:31.575Z,99802.41
2023-02-22T14:11:00.598Z,99790.81
2023-02-22T14:13:33.225Z,99793.41
2023-02-22T14:16:02.445Z,99795.78
2023-02-22T14:18:39.213Z,99790.81
2023-02-22T14:21:15.814Z,99790.13
2023-02-22T14:23:43.293Z,99787.81
2023-02-22T14:26:15.107Z,99784.50
2023-02-22T14:28:52.488Z,99783.84
2023-02-22T14:31:34.924Z,99779.88
2023-02-22T14:34:06.390Z,99774.91
2023-02-22T14:36:54.461Z,99774.56
2023-02-22T14:39:32.313Z,99775.22
2023-02-22T14:42:05.914Z,99766.41
2023-02-22T14:45:14.426Z,99771.56
2023-02-22T14:47:54.402Z,99767.94
2023-02-22T14:50:27.030Z,99756.94
2023-02-22T14:53:03.895Z,99761.91
2023-02-22T14:55:33.136Z,99761.59
2023-02-22T14:58:10.570Z,99752.59
2023-02-22T15:00:45.885Z,99753.63
2023-02-22T15:03:37.246Z,99752.13
2023-02-22T15:06:14.881Z,99748.31
2023-02-22T15:08:42.566Z,99758.25
2023-02-22T15:11:21.490Z,99750.47
2023-02-22T15:13:54.814Z,99758.09
2023-02-22T15:16:23.276Z,99755.06
2023-02-22T15:18:54.712Z,99751.56
2023-02-22T15:21:24.615Z,99753.06
2023-02-22T15:23:54.541Z,99754.19
2023-02-22T15:26:37.321Z,99750.72
2023-02-22T15:29:19.590Z,99742.56
2023-02-22T15:31:48.283Z,99742.06
2023-02-22T15:34:14.890Z,99735.50
2023-02-22T15:36:43.924Z,99746.72
2023-02-22T15:39:29.596Z,99736.44
2023-02-22T15:42:19.155Z,99738.50
2023-02-22T15:44:48.085Z,99741.41
2023-02-22T15:47:27.246Z,99743.72
2023-02-22T15:50:33.846Z,99737.47
2023-02-22T15:53:04.807Z,99735.00
2023-02-22T15:55:37.541Z,99737.03
2023-02-22T15:58:15.809Z,99740.88
2023-02-22T16:00:45.304Z,99735.59
2023-02-22T16:03:15.009Z,99734.78
2023-02-22T16:05:47.705Z,99738.59
2023-02-22T16:08:18.575Z,99732.94
2023-02-22T16:10:58.402Z,99734.97
2023-02-22T16:13:32.366Z,99740.75
2023-02-22T16:16:03.038Z,99732.13
2023-02-22T16:18:31.764Z,99735.94
2023-02-22T16:21:01.358Z,99734.63
2023-02-22T16:23:29.084Z,99743.59
2023-02-22T16:26:05.254Z,99738.78
2023-02-22T16:28:33.941Z,99741.13
2023-02-22T16:31:00.392Z,99741.28
2023-02-22T16:33:30.930Z,99738.94
2023-02-22T16:35:57.362Z,99734.13
2023-02-22T16:38:27.350Z,99737.25
2023-02-22T16:40:55.755Z,99739.41
2023-02-22T16:43:27.492Z,99735.28
2023-02-22T16:45:53.914Z,99739.91
2023-02-22T16:48:23.525Z,99741.25
2023-02-22T16:50:51.700Z,99735.59
2023-02-22T16:53:21.107Z,99745.03
2023-02-22T16:55:48.062Z,99740.53
2023-02-22T16:58:17.179Z,99735.75
2023-02-22T17:00:43.676Z,99733.41
2023-02-22T17:03:15.271Z,99737.56
2023-02-22T17:05:41.750Z,99735.91
2023-02-22T17:08:08.160Z,99731.91
2023-02-22T17:10:34.658Z,99735.88
2023-02-22T17:13:12.832Z,99743.47
2023-02-22T17:15:46.641Z,99736.84
2023-02-22T17:18:16.149Z,99733.84
2023-02-22T17:20:45.766Z,99738.66
2023-02-22T17:23:12.376Z,99733.50
2023-02-22T17:25:50.176Z,99738.16
2023-02-22T17:28:17.021Z,99734.31
2023-02-22T17:30:45.166Z,99738.13
2023-02-22T17:33:16.360Z,99744.72
2023-02-22T17:35:42.865Z,99736.09
2023-02-22T17:38:10.188Z,99742.69
2023-02-22T17:40:38.689Z,99731.13
2023-02-22T17:43:08.707Z,99735.06
2023-02-22T17:45:38.310Z,99740.69
2023-02-22T17:48:05.486Z,99738.34
2023-02-22T17:50:31.844Z,99730.59
2023-02-22T17:53:00.512Z,99730.22
2023-02-22T17:55:27.425Z,99736.84
2023-02-22T17:57:58.266Z,99730.69
2023-02-22T18:00:33.014Z,99730.03
2023-02-22T18:03:21.726Z,99731.38
2023-02-22T18:05:50.832Z,99730.22
2023-02-22T18:08:17.383Z,99726.56
2023-02-22T18:10:44.678Z,99725.38
2023-02-22T18:13:14.170Z,99719.44
2023-02-22T18:15:40.468Z,99721.72
2023-02-22T18:18:07.187Z,99723.69
2023-02-22T18:20:39.259Z,99722.34
2023-02-22T18:23:07.935Z,99717.69
2023-02-22T18:25:35.953Z,99723.31
2023-02-22T18:28:04.606Z,99719.97
2023-02-22T18:30:31.008Z,99717.19
2023-02-22T18:32:57.666Z,99721.94
2023-02-22T18:35:24.087Z,99718.97
2023-02-22T18:37:50.424Z,99718.41
2023-02-22T18:40:18.913Z,99719.59
2023-02-22T18:42:46.570Z,99716.25
2023-02-22T18:45:13.209Z,99717.91
2023-02-22T18:47:44.096Z,99708.94
2023-02-22T18:50:11.731Z,99717.25
2023-02-22T18:52:44.792Z,99707.56
2023-02-22T18:55:22.177Z,99709.56
2023-02-22T18:57:52.480Z,99706.41
2023-02-22T19:00:24.168Z,99699.63
2023-02-22T19:02:50.624Z,99703.31
2023-02-22T19:05:17.329Z,99690.91
2023-02-22T19:07:44.990Z,99696.31
2023-02-22T19:10:11.369Z,99688.00
2023-02-22T19:12:37.713Z,99696.22
2023-02-22T19:15:04.511Z,99691.44
2023-02-22T19:17:32.203Z,99695.69
2023-02-22T19:19:58.591Z,99698.19
2023-02-22T19:22:26.217Z,99692.81
2023-02-22T19:24:56.351Z,99694.94
2023-02-22T19:27:22.851Z,99698.84
2023-02-22T19:29:49.836Z,99686.41
2023-02-22T19:32:17.361Z,99682.09
2023-02-22T19:34:44.118Z,99690.03
2023-02-22T19:37:12.495Z,99685.56
2023-02-22T19:39:38.977Z,99681.56
2023-02-22T19:42:09.021Z,99688.63
2023-02-22T19:44:35.514Z,99689.09
2023-02-22T19:47:02.122Z,99688.22
2023-02-22T19:49:29.182Z,99687.41
2023-02-22T19:51:58.025Z,99688.19
2023-02-22T19:54:24.402Z,99682.91
2023-02-22T19:56:51.124Z,99684.69
2023-02-22T19:59:22.583Z,99687.19
2023-02-22T20:01:52.691Z,99685.00
2023-02-22T20:04:21.308Z,99680.25
2023-02-22T20:06:50.541Z,99684.78
2023-02-22T20:09:20.065Z,99681.44
2023-02-22T20:11:48.005Z,99686.06
2023-02-22T20:14:20.204Z,99687.94
2023-02-22T20:16:46.891Z,99682.22
2023-02-22T20:19:13.644Z,99682.66
2023-02-22T20:21:40.217Z,99686.41
2023-02-22T20:24:09.115Z,99683.66
2023-02-22T20:26:36.789Z,99681.00
2023-02-22T20:29:04.385Z,99686.59
2023-02-22T20:31:31.354Z,99682.44
2023-02-22T20:33:59.963Z,99681.91
2023-02-22T20:36:28.482Z,99681.59
2023-02-22T20:38:59.740Z,99684.94
2023-02-22T20:41:28.606Z,99680.25
2023-02-22T20:43:56.166Z,99677.34
2023-02-22T20:46:23.832Z,99682.72
2023-02-22T20:48:55.357Z,99677.34
2023-02-22T20:51:22.245Z,99672.38
2023-02-22T20:53:48.890Z,99674.06
2023-02-22T20:56:19.908Z,99670.25
2023-02-22T20:58:46.674Z,99672.00
2023-02-22T21:01:16.943Z,99677.00
2023-02-22T21:03:43.645Z,99667.84
2023-02-22T21:06:14.782Z,99672.75
2023-02-22T21:08:45.806Z,99671.75
2023-02-22T21:11:13.838Z,99674.03
2023-02-22T21:13:40.943Z,99672.03
2023-02-22T21:16:10.152Z,99677.03
2023-02-22T21:18:37.247Z,99677.03
2023-02-22T21:21:10.305Z,99670.69
2023-02-22T21:23:37.521Z,99672.03
2023-02-22T21:26:04.172Z,99671.75
2023-02-22T21:28:49.969Z,99665.09
2023-02-22T21:31:18.950Z,99661.25
2023-02-22T21:33:58.447Z,99664.41
2023-02-22T21:36:25.819Z,99661.03
2023-02-22T21:39:00.644Z,99658.50
2023-02-22T21:41:29.396Z,99653.38
2023-02-22T21:43:58.409Z,99644.09
2023-02-22T21:46:26.993Z,99651.72
2023-02-22T21:48:53.493Z,99648.25
2023-02-22T21:51:31.298Z,99644.09
2023-02-22T21:54:00.961Z,99645.16
2023-02-22T21:56:27.893Z,99651.19
2023-02-22T21:59:00.242Z,99651.63
2023-02-22T22:01:28.384Z,99630.34
2023-02-22T22:03:56.402Z,99636.31
2023-02-22T22:06:22.785Z,99641.59
2023-02-22T22:08:49.129Z,99636.63
2023-02-22T22:11:17.827Z,99638.81
2023-02-22T22:13:44.445Z,99642.72
2023-02-22T22:16:14.702Z,99641.66
2023-02-22T22:18:42.948Z,99641.94
2023-02-22T22:21:16.365Z,99636.38
2023-02-22T22:23:46.861Z,99638.88
2023-02-22T22:26:19.882Z,99639.69
2023-02-22T22:28:48.456Z,99631.09
2023-02-22T22:31:17.871Z,99641.50
2023-02-22T22:33:44.782Z,99638.63
2023-02-22T22:36:13.609Z,99636.94
2023-02-22T22:38:40.265Z,99636.41
2023-02-22T22:41:09.061Z,99635.47
2023-02-22T22:43:37.048Z,99641.41
2023-02-22T22:46:05.603Z,99645.31
2023-02-22T22:48:36.020Z,99636.94
2023-02-22T22:51:06.573Z,99640.28
2023-02-22T22:53:34.436Z,99634.69
2023-02-22T22:56:08.512Z,99638.34
2023-02-22T22:58:35.521Z,99645.72
2023-02-22T23:01:06.289Z,99649.47
2023-02-22T23:03:36.805Z,99645.47
2023-02-22T23:06:04.659Z,99647.56
2023-02-22T23:08:42.894Z,99655.06
2023-02-22T23:11:11.071Z,99652.59
2023-02-22T23:13:38.634Z,99655.53
2023-02-22T23:16:12.020Z,99647.91
2023-02-22T23:18:43.254Z,99653.19
2023-02-22T23:21:10.645Z,99649.84
2023-02-22T23:23:37.721Z,99658.75
2023-02-22T23:26:18.450Z,99657.06
2023-02-22T23:28:47.256Z,99655.13
2023-02-22T23:31:16.818Z,99650.66
2023-02-22T23:33:48.113Z,99655.41
2023-02-22T23:36:15.916Z,99645.31
2023-02-22T23:38:42.997Z,99650.13
2023-02-22T23:41:13.635Z,99653.22
2023-02-22T23:43:40.537Z,99655.72
2023-02-22T23:46:13.554Z,99653.66
2023-02-22T23:48:46.628Z,99650.03
2023-02-22T23:51:15.251Z,99646.72
2023-02-22T23:53:49.373Z,99652.38
2023-02-22T23:56:21.852Z,99644.09
2023-02-22T23:58:52.275Z,99647.38
